Time;durP1;ratioP1;P1;durP2;ratioP2;P2;SDS_P1;SDS_P2;PMS_P1;PMS_P2;Temp;Humidity;BMP_temperature;BMP_pressure;BME280_temperature;BME280_humidity;BME280_pressure;Samples;Min_cycle;Max_cycle;Signal;HPM_P1;HPM_P2
2023/05/15 00:01:27;;;;;;;7.25;4.13;;;;;;;12.14;84.29;101449.59;5094306;28;20103;-86
2023/05/15 00:03:53;;;;;;;5.20;3.67;;;;;;;12.03;83.08;101440.19;5093207;28;20157;-86
2023/05/15 00:06:19;;;;;;;6.70;4.05;;;;;;;12.04;82.57;101446.25;5094196;28;20039;-86
2023/05/15 00:08:44;;;;;;;5.07;3.70;;;;;;;11.99;82.44;101442.84;5094202;28;20031;-84
2023/05/15 00:11:10;;;;;;;5.50;3.57;;;;;;;11.97;82.10;101432.44;5094524;28;20032;-86
2023/05/15 00:13:37;;;;;;;5.60;3.83;;;;;;;11.96;82.30;101435.91;5094880;28;20028;-86
2023/05/15 00:16:02;;;;;;;;;;;;;;;11.94;82.49;101432.47;5094119;28;20024;-85
2023/05/15 00:18:27;;;;;;;5.47;3.70;;;;;;;11.90;82.21;101430.75;5094436;28;20276;-86
2023/05/15 00:20:53;;;;;;;6.67;4.20;;;;;;;11.91;81.79;101427.28;5094815;28;20476;-86
2023/05/15 00:23:18;;;;;;;7.23;4.37;;;;;;;11.89;81.86;101424.72;5093737;28;20036;-85
2023/05/15 00:25:43;;;;;;;6.93;4.40;;;;;;;11.90;81.77;101435.97;5094709;28;20469;-86
2023/05/15 00:28:09;;;;;;;5.60;4.07;;;;;;;11.88;82.16;101428.19;5094021;28;20023;-86
2023/05/15 00:30:34;;;;;;;6.47;4.37;;;;;;;11.83;84.11;101426.50;5093668;28;20031;-86
2023/05/15 00:32:59;;;;;;;6.37;4.20;;;;;;;11.77;82.52;101436.97;5094288;28;20024;-85
2023/05/15 00:35:24;;;;;;;5.13;3.67;;;;;;;11.69;83.43;101426.66;5094552;28;20024;-86
2023/05/15 00:37:50;;;;;;;7.37;4.63;;;;;;;11.65;83.13;101422.38;5093603;28;20073;-85
2023/05/15 00:40:22;;;;;;;7.23;4.30;;;;;;;11.58;83.06;101422.44;5093147;28;20442;-86
2023/05/15 00:42:49;;;;;;;7.53;4.28;;;;;;;11.57;84.07;101428.53;5094200;28;20063;-86
2023/05/15 00:45:14;;;;;;;6.28;4.18;;;;;;;11.50;83.38;101418.19;5092908;28;20050;-86
2023/05/15 00:47:41;;;;;;;4.90;3.60;;;;;;;11.49;83.63;101419.06;5093888;28;20095;-85
2023/05/15 00:50:08;;;;;;;8.23;4.60;;;;;;;11.49;82.79;101419.06;5093931;28;20016;-86
2023/05/15 00:52:35;;;;;;;7.03;4.38;;;;;;;11.44;83.11;101411.31;5093330;28;20028;-86
2023/05/15 00:55:00;;;;;;;7.35;4.60;;;;;;;11.42;82.36;101418.25;5093698;28;20016;-85
2023/05/15 00:57:26;;;;;;;7.53;4.70;;;;;;;11.38;83.45;101414.84;5094042;28;20484;-86
2023/05/15 00:59:53;;;;;;;6.80;4.53;;;;;;;11.35;82.97;101417.47;5093111;28;20082;-86
2023/05/15 01:02:18;;;;;;;;;;;;;;;11.35;83.16;101416.59;5093922;28;20047;-85
2023/05/15 01:04:44;;;;;;;8.23;4.60;;;;;;;11.27;82.79;101401.94;5093811;28;19912;-86
2023/05/15 01:07:10;;;;;;;7.10;4.50;;;;;;;11.28;83.34;101415.81;5092897;28;20099;-86
2023/05/15 01:09:37;;;;;;;7.13;4.07;;;;;;;11.23;83.35;101410.66;5093888;28;20540;-86
2023/05/15 01:12:04;;;;;;;6.63;3.90;;;;;;;11.21;83.76;101402.00;5087146;28;20040;-85
2023/05/15 01:14:29;;;;;;;6.60;4.25;;;;;;;11.18;83.39;101402.03;5084606;28;20032;-86
2023/05/15 01:16:55;;;;;;;7.03;4.43;;;;;;;11.19;83.58;101408.94;5093556;28;20407;-86
2023/05/15 01:19:20;;;;;;;6.87;4.40;;;;;;;11.17;82.93;101405.50;5092696;28;20024;-85
2023/05/15 01:22:09;;;;;;;7.40;4.60;;;;;;;11.17;83.27;101402.03;5093092;28;20411;-85
2023/05/15 01:25:08;;;;;;;8.57;5.22;;;;;;;11.15;83.01;101407.22;5093418;28;20020;-86
2023/05/15 01:27:47;;;;;;;8.63;5.30;;;;;;;11.13;83.25;101409.84;5093035;28;20421;-85
2023/05/15 01:30:29;;;;;;;9.27;5.20;;;;;;;11.15;83.02;101403.78;5092448;28;20423;-86
2023/05/15 01:33:20;;;;;;;8.63;5.18;;;;;;;11.11;83.14;101398.63;5093149;28;20510;-85
2023/05/15 01:36:04;;;;;;;8.13;4.85;;;;;;;11.12;83.31;101399.50;5093174;28;20024;-85
2023/05/15 01:38:36;;;;;;;10.18;5.55;;;;;;;11.11;82.71;101400.38;5092983;28;20031;-85
2023/05/15 01:41:09;;;;;;;10.15;5.30;;;;;;;11.07;83.42;101394.34;5092054;28;20031;-86
2023/05/15 01:43:38;;;;;;;8.07;5.10;;;;;;;11.05;82.97;101395.19;5092835;28;20032;-85
2023/05/15 01:46:05;;;;;;;8.23;5.10;;;;;;;11.02;83.42;101390.91;5092734;28;20494;-85
2023/05/15 01:48:30;;;;;;;;;;;;;;;10.95;83.69;101397.88;5092396;28;20061;-85
2023/05/15 01:51:01;;;;;;;9.30;5.17;;;;;;;10.89;83.60;101394.47;5093009;28;19912;-85
2023/05/15 01:53:30;;;;;;;8.00;4.80;;;;;;;10.82;83.81;101380.66;5092984;28;20076;-85
2023/05/15 01:55:57;;;;;;;8.52;5.18;;;;;;;10.79;83.82;101388.50;5092169;28;20024;-85
2023/05/15 01:58:24;;;;;;;8.57;4.97;;;;;;;10.76;83.53;101386.75;5092860;28;20120;-85
2023/05/15 02:00:51;;;;;;;7.63;4.95;;;;;;;10.68;85.15;101382.53;5093042;28;20369;-85
2023/05/15 02:03:17;;;;;;;9.18;4.85;;;;;;;10.67;84.23;101384.25;5091380;28;20054;-85
2023/05/15 02:05:43;;;;;;;10.23;5.60;;;;;;;10.66;84.10;101380.81;5090886;28;20028;-85
2023/05/15 02:08:11;;;;;;;9.48;5.57;;;;;;;10.68;84.17;101380.78;5088966;28;20114;-85
2023/05/15 02:10:36;;;;;;;10.93;5.78;;;;;;;10.70;84.55;101379.03;5091507;28;20431;-85
2023/05/15 02:13:04;;;;;;;10.23;5.77;;;;;;;10.70;84.06;101375.56;5091998;28;20020;-85
2023/05/15 02:15:30;;;;;;;10.63;5.70;;;;;;;10.69;84.06;101384.25;5091698;28;20027;-85
2023/05/15 02:17:55;;;;;;;9.23;5.30;;;;;;;10.69;84.41;101381.66;5092828;28;20020;-86
2023/05/15 02:20:20;;;;;;;9.43;5.40;;;;;;;10.63;84.12;101383.41;5092205;28;20027;-86
2023/05/15 02:22:46;;;;;;;9.83;5.60;;;;;;;10.62;84.24;101386.88;5065550;28;20048;-86
2023/05/15 02:25:11;;;;;;;10.67;5.63;;;;;;;10.58;86.12;101372.22;5071576;28;20496;-85
2023/05/15 02:27:50;;;;;;;8.83;5.20;;;;;;;10.54;84.45;101380.88;5073194;28;20020;-85
2023/05/15 02:30:21;;;;;;;10.48;5.93;;;;;;;10.54;85.40;101382.59;5078055;28;20016;-85
2023/05/15 02:32:55;;;;;;;11.13;6.15;;;;;;;10.48;85.26;101384.38;5096772;28;20430;-85
2023/05/15 02:35:26;;;;;;;9.38;5.43;;;;;;;10.46;86.18;101385.25;5096295;28;20085;-86
2023/05/15 02:37:55;;;;;;;10.23;5.13;;;;;;;10.43;84.98;101385.28;5091144;28;20035;-85
2023/05/15 02:40:23;;;;;;;9.27;5.22;;;;;;;10.40;85.39;101387.88;5095896;28;20452;-86
2023/05/15 02:42:49;;;;;;;9.55;5.10;;;;;;;10.40;86.34;101396.53;5096438;28;20115;-86
2023/05/15 02:45:15;;;;;;;7.60;4.35;;;;;;;10.35;85.61;101390.47;5095543;28;20025;-85
2023/05/15 02:47:44;;;;;;;9.40;4.97;;;;;;;10.30;85.64;101380.13;5096438;28;20078;-85
2023/05/15 02:50:10;;;;;;;8.27;4.82;;;;;;;10.28;85.90;101394.81;5095812;28;20081;-85
2023/05/15 02:52:36;;;;;;;8.05;4.40;;;;;;;10.25;86.83;101399.19;5095633;28;20026;-85
2023/05/15 02:55:01;;;;;;;6.27;3.93;;;;;;;10.18;86.90;101393.16;5096151;28;20103;-85
2023/05/15 02:57:26;;;;;;;6.80;4.20;;;;;;;10.13;86.15;101388.00;5095748;28;20026;-85
2023/05/15 02:59:53;;;;;;;7.23;4.40;;;;;;;10.12;88.09;101386.25;5095357;28;20032;-86
2023/05/15 03:02:18;;;;;;;8.48;4.40;;;;;;;10.07;87.88;101381.97;5095272;28;20040;-85
2023/05/15 03:04:44;;;;;;;9.73;4.80;;;;;;;9.99;88.07;101380.28;5095128;28;20107;-86
2023/05/15 03:07:10;;;;;;;8.63;4.50;;;;;;;9.97;87.20;101374.22;5095913;28;20353;-85
2023/05/15 03:09:35;;;;;;;7.57;4.50;;;;;;;9.98;87.57;101383.75;5095519;28;20365;-85
2023/05/15 03:12:00;;;;;;;7.93;4.47;;;;;;;9.98;87.52;101375.06;5095071;28;20024;-85
2023/05/15 03:14:26;;;;;;;8.50;4.43;;;;;;;9.90;87.41;101372.53;5095914;28;20020;-85
2023/05/15 03:16:51;;;;;;;10.40;5.20;;;;;;;9.92;88.96;101382.91;5095977;28;20028;-85
2023/05/15 03:19:16;;;;;;;11.17;5.40;;;;;;;9.86;88.80;101383.78;5094517;28;20431;-85
2023/05/15 03:21:41;;;;;;;13.30;6.13;;;;;;;9.80;90.55;101376.88;5095980;28;20020;-86
2023/05/15 03:24:07;;;;;;;11.80;5.90;;;;;;;9.77;89.69;101378.63;5095315;28;20069;-85
2023/05/15 03:26:32;;;;;;;9.13;5.13;;;;;;;9.70;89.38;101362.25;5094885;28;20099;-85
2023/05/15 03:28:57;;;;;;;9.00;4.53;;;;;;;9.68;89.35;101363.97;5095396;28;20035;-85
2023/05/15 03:31:22;;;;;;;9.87;4.80;;;;;;;9.68;88.85;101370.00;5095538;28;20016;-85
2023/05/15 03:33:49;;;;;;;8.73;4.80;;;;;;;9.62;89.80;101366.59;5094784;28;20034;-85
2023/05/15 03:36:17;;;;;;;14.07;6.50;;;;;;;9.65;90.17;101375.22;5087731;28;20052;-85
2023/05/15 03:38:43;;;;;;;11.03;5.47;;;;;;;9.62;89.73;101372.63;5094945;28;20075;-85
2023/05/15 03:41:09;;;;;;;10.70;5.40;;;;;;;9.64;88.21;101375.19;5094507;28;20059;-86
2023/05/15 03:43:34;;;;;;;10.43;5.60;;;;;;;9.62;88.49;101366.59;5095160;28;20104;-85
2023/05/15 03:46:00;;;;;;;9.70;4.97;;;;;;;9.59;88.31;101362.25;5094894;28;20528;-85
2023/05/15 03:48:25;;;;;;;9.90;5.10;;;;;;;9.56;87.72;101355.34;5094410;28;20396;-85
2023/05/15 03:50:51;;;;;;;11.70;5.80;;;;;;;9.66;87.56;101360.50;5095164;28;20020;-85
2023/05/15 03:53:16;;;;;;;11.57;5.73;;;;;;;9.65;87.37;101367.44;5095003;28;20027;-86
2023/05/15 03:55:42;;;;;;;11.23;5.30;;;;;;;9.68;87.66;101361.38;5094318;28;20031;-86
2023/05/15 03:58:07;;;;;;;10.47;5.40;;;;;;;9.67;87.67;101362.25;5094719;28;20049;-85
2023/05/15 04:00:33;;;;;;;12.37;5.80;;;;;;;9.65;86.97;101353.59;5094993;28;20085;-86
2023/05/15 04:02:58;;;;;;;12.63;6.23;;;;;;;9.68;87.11;101354.44;5094005;28;20075;-85
2023/05/15 04:05:23;;;;;;;14.00;6.80;;;;;;;9.69;86.66;101363.09;5094739;28;20051;-85
2023/05/15 04:07:48;;;;;;;13.17;6.47;;;;;;;9.64;87.41;101344.97;5095243;28;20102;-86
2023/05/15 04:10:14;;;;;;;14.27;6.90;;;;;;;9.70;86.82;101365.69;5094198;28;20105;-86
2023/05/15 04:12:39;;;;;;;13.90;6.57;;;;;;;9.69;86.80;101356.19;5095024;28;20024;-86
2023/05/15 04:15:15;;;;;;;13.60;6.50;;;;;;;9.70;86.82;101360.50;5094168;28;20024;-86
2023/05/15 04:17:41;;;;;;;12.48;6.05;;;;;;;9.67;88.39;101354.47;5096687;28;20055;-85
2023/05/15 04:20:07;;;;;;;12.40;6.20;;;;;;;9.65;87.36;101353.59;5094511;28;20036;-86
2023/05/15 04:22:32;;;;;;;13.45;6.43;;;;;;;9.70;88.58;101359.66;5094238;28;20028;-85
2023/05/15 04:24:58;;;;;;;12.53;6.07;;;;;;;9.65;88.88;101362.25;5093954;28;20030;-85
2023/05/15 04:27:26;;;;;;;12.63;5.83;;;;;;;9.62;88.20;101356.22;5095122;28;20028;-87
2023/05/15 04:29:52;;;;;;;13.85;6.55;;;;;;;9.60;89.65;101369.16;5094488;28;20020;-87
2023/05/15 04:32:17;;;;;;;12.60;5.80;;;;;;;9.58;89.79;101366.59;5094692;28;20047;-86
2023/05/15 04:34:42;;;;;;;14.07;6.40;;;;;;;9.57;91.58;101366.56;5095313;28;20020;-85
2023/05/15 04:37:09;;;;;;;14.40;6.73;;;;;;;9.53;91.08;101368.31;5093710;28;20107;-87
2023/05/15 04:39:35;;;;;;;;;;;;;;;9.51;91.10;101377.84;5094803;28;20028;-84
2023/05/15 04:42:01;;;;;;;14.70;6.87;;;;;;;9.49;91.87;101370.91;5084911;28;19913;-83
2023/05/15 04:44:29;;;;;;;13.98;6.50;;;;;;;9.47;92.92;101378.72;5093175;28;20020;-85
2023/05/15 04:46:54;;;;;;;17.73;8.02;;;;;;;9.49;93.92;101387.34;5094258;28;20024;-85
2023/05/15 04:49:19;;;;;;;17.43;7.67;;;;;;;9.52;93.33;101387.31;5094773;28;20024;-88
2023/05/15 04:51:45;;;;;;;19.50;9.53;;;;;;;9.51;94.43;101400.28;5084866;28;20024;-87
2023/05/15 04:54:10;;;;;;;23.50;11.83;;;;;;;9.49;95.16;101396.84;5094771;28;20024;-88
2023/05/15 04:56:36;;;;;;;21.73;11.90;;;;;;;9.48;93.31;101403.75;5094797;28;20040;-87
2023/05/15 04:59:02;;;;;;;20.90;10.65;;;;;;;9.54;94.79;101393.38;5093798;28;20020;-87
2023/05/15 05:01:27;;;;;;;19.47;9.37;;;;;;;9.60;93.94;101392.50;5094936;28;20028;-88
2023/05/15 05:03:55;;;;;;;17.37;8.10;;;;;;;9.68;92.74;101398.50;5095086;28;20048;-89
2023/05/15 05:06:22;;;;;;;14.93;7.35;;;;;;;9.77;92.54;101399.38;5094972;28;20035;-88
2023/05/15 05:08:47;;;;;;;13.68;6.60;;;;;;;9.85;93.21;101392.44;5095615;28;20028;-89
2023/05/15 05:11:16;;;;;;;12.40;6.13;;;;;;;9.97;92.68;101405.34;5095054;28;20415;-88
2023/05/15 05:13:41;;;;;;;12.30;5.68;;;;;;;10.04;91.68;101401.84;5095038;28;20024;-89
2023/05/15 05:16:06;;;;;;;12.47;6.07;;;;;;;10.16;90.38;101406.13;5095177;28;20026;-88
2023/05/15 05:18:32;;;;;;;10.53;5.43;;;;;;;10.25;90.52;101412.16;5094983;28;20478;-89
2023/05/15 05:21:01;;;;;;;16.23;7.80;;;;;;;10.24;93.05;101400.91;5094747;28;20036;-88
2023/05/15 05:23:28;;;;;;;14.40;7.00;;;;;;;10.29;91.08;101401.75;5098587;28;20035;-89
2023/05/15 05:25:55;;;;;;;22.67;12.32;;;;;;;10.24;93.60;101402.63;5093005;28;20024;-87
2023/05/15 05:28:20;;;;;;;22.83;13.15;;;;;;;10.26;92.37;101412.13;5094156;28;20020;-85
2023/05/15 05:30:46;;;;;;;20.00;10.27;;;;;;;10.30;92.34;101415.59;5093723;28;20028;-86
2023/05/15 05:33:12;;;;;;;21.85;11.32;;;;;;;10.34;92.49;101425.94;5092772;28;20028;-86
2023/05/15 05:35:40;;;;;;;20.83;10.23;;;;;;;10.35;93.10;101421.59;5093829;28;20103;-86
2023/05/15 05:38:05;;;;;;;18.90;9.48;;;;;;;10.37;91.30;101430.25;5093248;28;20028;-86
2023/05/15 05:40:30;;;;;;;17.63;8.47;;;;;;;10.40;91.30;101419.00;5092645;28;20499;-85
2023/05/15 05:42:59;;;;;;;15.37;7.57;;;;;;;10.46;91.96;101426.78;5093458;28;20486;-85
2023/05/15 05:45:27;;;;;;;13.27;6.50;;;;;;;10.48;90.88;101430.22;5093320;28;20123;-87
2023/05/15 05:47:55;;;;;;;12.30;6.28;;;;;;;10.57;90.95;101432.78;5092785;28;20035;-86
2023/05/15 05:50:22;;;;;;;17.92;8.48;;;;;;;10.66;92.25;101437.91;5092325;28;20523;-87
2023/05/15 05:52:47;;;;;;;21.58;11.50;;;;;;;10.74;92.70;101431.78;5093158;28;20073;-87
2023/05/15 05:55:13;;;;;;;22.07;12.03;;;;;;;10.84;91.53;101432.59;5092593;28;20032;-87
2023/05/15 05:57:38;;;;;;;22.17;12.50;;;;;;;10.89;91.20;101433.41;5093550;28;20035;-87
2023/05/15 06:00:08;;;;;;;21.43;11.37;;;;;;;10.85;90.53;101424.78;5092674;28;20381;-86
2023/05/15 06:02:34;;;;;;;21.27;11.63;;;;;;;10.85;90.33;101430.00;5090532;28;20040;-87
2023/05/15 06:05:00;;;;;;;21.48;11.85;;;;;;;10.78;89.40;101430.91;5093300;28;20031;-86
2023/05/15 06:07:25;;;;;;;20.63;10.57;;;;;;;10.72;89.37;101421.44;5093195;28;20337;-87
2023/05/15 06:09:50;;;;;;;18.63;9.17;;;;;;;10.85;89.49;101426.53;5092680;28;20043;-85
2023/05/15 06:12:17;;;;;;;19.03;9.73;;;;;;;10.92;89.10;101421.25;5092987;28;20019;-87
2023/05/15 06:14:42;;;;;;;22.75;13.30;;;;;;;10.99;89.28;101436.81;5092987;28;20047;-88
2023/05/15 06:17:07;;;;;;;21.67;11.63;;;;;;;11.07;89.47;101435.91;5093869;28;20027;-82
2023/05/15 06:19:33;;;;;;;19.40;9.97;;;;;;;11.17;90.06;101436.66;5093076;28;20414;-86
2023/05/15 06:21:58;;;;;;;18.03;9.00;;;;;;;11.25;89.11;101434.88;5088792;28;20041;-85
2023/05/15 06:24:23;;;;;;;17.07;8.60;;;;;;;11.28;88.83;101432.25;5092748;28;20048;-86
2023/05/15 06:26:48;;;;;;;19.10;9.50;;;;;;;11.36;88.76;101428.72;5092658;28;20024;-86
2023/05/15 06:29:14;;;;;;;19.70;9.90;;;;;;;11.49;88.24;101435.50;5092879;28;20031;-86
2023/05/15 06:31:39;;;;;;;16.57;8.30;;;;;;;11.53;87.98;101433.78;5093352;28;20073;-86
2023/05/15 06:34:05;;;;;;;18.00;9.00;;;;;;;11.54;87.25;101433.75;5092706;28;20555;-85
2023/05/15 06:36:30;;;;;;;14.70;7.30;;;;;;;11.57;86.83;101432.84;5091414;28;20038;-86
2023/05/15 06:38:56;;;;;;;16.80;8.40;;;;;;;11.59;86.59;101429.38;5092933;28;20024;-85
2023/05/15 06:41:21;;;;;;;15.23;7.90;;;;;;;11.79;86.53;101422.22;5092353;28;20020;-85
2023/05/15 06:43:46;;;;;;;18.50;8.90;;;;;;;12.69;87.24;101426.31;5092194;28;20472;-88
2023/05/15 06:46:14;;;;;;;20.13;11.47;;;;;;;13.96;81.67;101429.38;5091016;28;20067;-89
2023/05/15 06:48:40;;;;;;;18.75;10.50;;;;;;;14.71;81.72;101420.84;5093833;28;20491;-88
2023/05/15 06:51:05;;;;;;;16.97;9.07;;;;;;;15.41;76.73;101433.06;5093040;28;20020;-89
2023/05/15 06:53:30;;;;;;;23.53;14.53;;;;;;;15.81;70.84;101429.34;5093412;28;20024;-89
2023/05/15 06:55:56;;;;;;;19.20;11.20;;;;;;;15.67;76.33;101423.63;5095435;28;20020;-88
2023/05/15 06:58:21;;;;;;;20.63;12.43;;;;;;;15.62;74.23;101428.16;5094756;28;20024;-89
2023/05/15 07:00:46;;;;;;;18.60;10.20;;;;;;;15.62;75.05;101426.38;5092126;28;20085;-88
2023/05/15 07:03:13;;;;;;;15.97;8.27;;;;;;;15.57;74.28;101430.91;5093270;28;20044;-88
2023/05/15 07:05:38;;;;;;;18.88;11.38;;;;;;;15.51;69.58;101429.31;5092708;28;20074;-88
2023/05/15 07:08:04;;;;;;;18.57;10.60;;;;;;;15.24;73.59;101426.50;5092681;28;20035;-89
2023/05/15 07:10:29;;;;;;;15.50;8.80;;;;;;;15.19;74.84;101423.16;5093202;28;20028;-88
2023/05/15 07:12:54;;;;;;;14.13;8.10;;;;;;;15.13;73.91;101429.41;5092658;28;20020;-88
2023/05/15 07:15:20;;;;;;;14.10;8.33;;;;;;;15.06;73.76;101425.19;5094674;28;20442;-88
2023/05/15 07:17:45;;;;;;;18.83;10.97;;;;;;;14.94;71.21;101430.72;5096841;28;20506;-88
2023/05/15 07:20:11;;;;;;;17.37;9.50;;;;;;;14.88;75.48;101425.66;5096833;28;20024;-88
2023/05/15 07:22:40;;;;;;;19.10;11.57;;;;;;;14.91;73.92;101426.44;5094459;28;20028;-89
2023/05/15 07:25:05;;;;;;;19.50;12.13;;;;;;;14.94;73.21;101421.16;5096280;28;20043;-88
2023/05/15 07:27:31;;;;;;;17.07;10.20;;;;;;;15.00;74.72;101435.81;5096994;28;20476;-89
2023/05/15 07:29:56;;;;;;;16.80;9.50;;;;;;;15.19;75.45;101424.91;5097208;28;20111;-88
2023/05/15 07:32:21;;;;;;;14.43;8.27;;;;;;;15.48;75.49;101425.91;5096250;28;20051;-88
2023/05/15 07:34:47;;;;;;;14.83;8.83;;;;;;;15.73;74.12;101419.09;5097657;28;20107;-89
2023/05/15 07:37:12;;;;;;;14.50;8.47;;;;;;;15.81;73.20;101418.88;5101620;28;20103;-90
2023/05/15 07:39:37;;;;;;;12.83;7.50;;;;;;;15.76;74.54;101415.56;5096036;28;20049;-89
2023/05/15 07:42:03;;;;;;;12.40;7.37;;;;;;;15.78;74.60;101423.34;5096466;28;20024;-88
2023/05/15 07:44:28;;;;;;;13.67;7.73;;;;;;;15.84;73.35;101417.94;5096559;28;20028;-89
2023/05/15 07:46:54;;;;;;;11.80;6.90;;;;;;;15.89;72.12;101427.41;5095966;28;20081;-88
2023/05/15 07:49:19;;;;;;;11.27;6.90;;;;;;;15.89;74.09;101422.19;5095563;28;20117;-90
2023/05/15 07:51:45;;;;;;;11.80;7.00;;;;;;;15.90;73.23;101416.03;5097144;28;20477;-88
2023/05/15 07:54:10;;;;;;;15.20;8.97;;;;;;;15.89;71.35;101418.72;5096103;28;20057;-89
2023/05/15 07:56:36;;;;;;;13.47;7.80;;;;;;;15.80;72.94;101414.56;5096522;28;20499;-89
2023/05/15 07:59:02;;;;;;;13.30;7.38;;;;;;;15.85;73.79;101398.75;5096366;28;20025;-90
2023/05/15 08:01:27;;;;;;;9.77;6.07;;;;;;;15.92;73.98;101409.91;5096221;28;20028;-89
2023/05/15 08:03:59;;;;;;;9.03;5.63;;;;;;;16.05;74.04;101403.41;5096466;28;20094;-89
2023/05/15 08:06:24;;;;;;;17.25;9.40;;;;;;;15.98;71.82;101405.34;5097029;28;20028;-89
2023/05/15 08:08:49;;;;;;;12.43;7.53;;;;;;;16.00;73.07;101407.91;5096946;28;20034;-89
2023/05/15 08:11:15;;;;;;;12.77;7.03;;;;;;;16.11;73.35;101402.38;5096404;28;20016;-89
2023/05/15 08:13:40;;;;;;;21.10;13.40;;;;;;;16.01;65.99;101407.00;5097267;28;20468;-89
2023/05/15 08:16:05;;;;;;;18.70;11.37;;;;;;;15.93;70.91;101403.78;5095604;28;20028;-89
2023/05/15 08:18:30;;;;;;;15.03;8.40;;;;;;;15.99;71.45;101403.59;5100303;28;20020;-89
2023/05/15 08:20:56;;;;;;;12.60;7.43;;;;;;;16.11;70.56;101411.06;5104426;28;20031;-89
2023/05/15 08:23:21;;;;;;;9.67;6.17;;;;;;;16.23;71.27;101409.88;5096698;28;20023;-89
2023/05/15 08:25:46;;;;;;;9.23;6.07;;;;;;;16.40;71.75;101398.88;5095035;28;20375;-90
2023/05/15 08:28:12;;;;;;;17.87;10.03;;;;;;;16.55;67.47;101405.41;5095160;28;20023;-90
2023/05/15 08:30:37;;;;;;;18.33;10.57;;;;;;;16.58;63.72;101414.91;5096424;28;20544;-88
2023/05/15 08:33:05;;;;;;;16.07;9.27;;;;;;;16.50;68.14;101410.78;5095587;28;20483;-89
2023/05/15 08:35:30;;;;;;;12.27;7.15;;;;;;;16.67;70.12;101415.50;5095274;28;20078;-89
2023/05/15 08:37:57;;;;;;;12.40;6.97;;;;;;;16.79;68.39;101411.63;5096141;28;20020;-90
2023/05/15 08:40:22;;;;;;;13.02;7.75;;;;;;;16.88;67.12;101413.09;5095288;22;20152;-89
2023/05/15 08:42:53;;;;;;;20.73;13.27;;;;;;;16.87;65.77;101415.78;5076914;28;20044;-90
2023/05/15 08:45:19;;;;;;;16.83;9.38;;;;;;;16.83;67.68;101415.88;5077243;28;20417;-89
2023/05/15 08:47:44;;;;;;;12.07;7.23;;;;;;;17.01;68.45;101412.72;5075565;28;20024;-89
2023/05/15 08:50:15;;;;;;;9.77;6.37;;;;;;;17.13;66.86;101407.91;5074741;28;20031;-88
2023/05/15 08:55:16;;;;;;;10.18;5.93;;;;;;;17.17;67.90;101413.06;5153271;23;20047;-88
2023/05/15 08:57:43;;;;;;;9.15;5.78;;;;;;;17.18;68.36;101405.13;5095082;28;20069;-87
2023/05/15 09:00:10;;;;;;;18.35;10.55;;;;;;;17.18;67.84;101404.28;5094819;28;20020;-80
2023/05/15 09:02:37;;;;;;;14.27;8.02;;;;;;;17.28;67.60;101396.03;5093697;28;20161;-80
2023/05/15 09:05:03;;;;;;;11.18;6.78;;;;;;;17.41;67.80;101395.59;5092596;28;20024;-78
2023/05/15 09:07:30;;;;;;;11.18;6.35;;;;;;;17.47;68.32;101403.28;5094020;28;20020;-80
2023/05/15 09:09:56;;;;;;;8.18;5.43;;;;;;;17.72;68.55;101405.03;5094066;28;20052;-76
2023/05/15 09:12:23;;;;;;;14.20;8.13;;;;;;;17.92;66.95;101406.91;5092695;28;20023;-75
2023/05/15 09:14:49;;;;;;;11.57;6.68;;;;;;;18.05;67.01;101399.47;5093250;28;20050;-75
2023/05/15 09:17:15;;;;;;;8.93;5.27;;;;;;;18.21;67.47;101400.56;5093265;28;20032;-77
2023/05/15 09:19:42;;;;;;;10.13;5.90;;;;;;;18.29;65.66;101404.69;5092577;28;20032;-84
2023/05/15 09:22:22;;;;;;;7.75;5.22;;;;;;;18.31;66.82;101398.47;5073865;28;20062;-85
2023/05/15 09:24:50;;;;;;;6.68;4.65;;;;;;;18.40;66.89;101396.38;5086598;28;20028;-85
2023/05/15 09:27:15;;;;;;;6.38;4.40;;;;;;;18.50;66.98;101398.59;5091774;28;20450;-85
2023/05/15 09:29:41;;;;;;;16.30;9.37;;;;;;;18.56;64.83;101386.09;5073105;28;20143;-85
2023/05/15 09:32:11;;;;;;;15.60;8.70;;;;;;;18.54;64.43;101394.06;5088397;28;20028;-85
2023/05/15 09:34:39;;;;;;;17.00;9.75;;;;;;;18.53;62.57;101393.19;5093646;28;20040;-86
2023/05/15 09:37:06;;;;;;;14.30;7.90;;;;;;;18.52;62.37;101402.00;5076971;28;20056;-86
2023/05/15 09:39:42;;;;;;;14.10;7.45;;;;;;;18.54;62.71;101401.94;5063896;22;20073;-85
2023/05/15 09:42:09;;;;;;;8.47;5.43;;;;;;;18.51;64.09;101400.31;5052095;28;20029;-84
2023/05/15 09:44:39;;;;;;;8.93;5.63;;;;;;;18.50;63.69;101400.34;5053087;28;20442;-85
2023/05/15 09:47:05;;;;;;;6.53;4.70;;;;;;;18.41;64.56;101393.69;5051654;28;20029;-84
2023/05/15 09:49:30;;;;;;;5.75;4.20;;;;;;;18.36;65.06;101390.41;5052502;28;20432;-85
2023/05/15 09:52:00;;;;;;;7.00;4.83;;;;;;;18.24;62.60;101396.13;5053451;28;20099;-85
2023/05/15 09:54:28;;;;;;;7.35;4.40;;;;;;;18.10;64.52;101394.88;5051800;28;20021;-85
2023/05/15 09:56:54;;;;;;;5.63;4.00;;;;;;;18.04;64.29;101397.75;5051665;28;20436;-85
2023/05/15 09:59:23;;;;;;;8.93;5.20;;;;;;;17.96;62.92;101403.25;5052280;28;20021;-85
2023/05/15 10:01:50;;;;;;;13.77;7.60;;;;;;;17.75;63.15;101405.75;5052205;28;20033;-85
2023/05/15 10:04:16;;;;;;;11.20;6.35;;;;;;;17.66;62.21;101408.72;5052764;28;20021;-85
2023/05/15 10:06:44;;;;;;;20.63;12.40;;;;;;;17.31;62.35;101408.22;5051920;28;20385;-85
2023/05/15 10:09:10;;;;;;;22.60;13.82;;;;;;;16.83;63.29;101417.66;5052237;28;20091;-84
2023/05/15 10:11:38;;;;;;;17.70;9.93;;;;;;;16.85;65.29;101420.19;5052834;28;20032;-85
2023/05/15 10:14:08;;;;;;;15.82;8.60;;;;;;;16.93;65.56;101411.19;5051338;28;20025;-85
2023/05/15 10:16:35;;;;;;;19.83;11.43;;;;;;;16.84;65.48;101416.72;5052719;28;20139;-85
2023/05/15 10:19:09;;;;;;;18.95;10.57;;;;;;;16.80;65.23;101417.72;5051961;28;20025;-84
2023/05/15 10:21:39;;;;;;;20.55;12.95;;;;;;;16.60;66.95;101410.50;5018994;28;20037;-83
2023/05/15 10:24:05;;;;;;;16.35;9.25;;;;;;;16.66;66.74;101423.44;5032164;28;20022;-84
2023/05/15 10:26:36;;;;;;;16.95;9.38;;;;;;;16.74;66.53;101425.78;5032066;28;20071;-85
2023/05/15 10:29:04;;;;;;;11.75;6.75;;;;;;;16.81;67.16;101422.91;5031657;28;20474;-84
2023/05/15 10:31:30;;;;;;;11.40;6.35;;;;;;;16.92;66.32;101419.09;5031228;28;20072;-84
2023/05/15 10:33:56;;;;;;;15.73;8.47;;;;;;;16.99;66.56;101418.03;5032574;28;20045;-83
2023/05/15 10:36:23;;;;;;;23.65;15.38;;;;;;;16.58;65.68;101422.78;5031696;28;20053;-83
2023/05/15 10:38:51;;;;;;;22.30;15.05;;;;;;;16.26;67.78;101428.13;5031963;28;20103;-83
2023/05/15 10:41:20;;;;;;;19.58;11.50;;;;;;;16.31;68.41;101423.59;5051120;28;20820;-84
2023/05/15 10:43:47;;;;;;;23.38;15.82;;;;;;;16.21;68.43;101419.53;5051627;28;20029;-83
2023/05/15 10:46:15;;;;;;;21.67;13.23;;;;;;;16.15;69.36;101419.72;5051705;28;20033;-83
2023/05/15 10:48:43;;;;;;;17.73;10.43;;;;;;;16.23;69.53;101415.09;5053860;28;20045;-84
2023/05/15 10:51:16;;;;;;;20.30;11.82;;;;;;;16.31;68.71;101412.28;5055295;28;20025;-83
2023/05/15 10:53:43;;;;;;;16.17;8.73;;;;;;;16.40;70.31;101416.34;5056134;28;20023;-84
2023/05/15 10:56:13;;;;;;;10.52;6.25;;;;;;;16.55;69.65;101415.03;5055214;28;20025;-83
2023/05/15 10:58:46;;;;;;;10.27;5.95;;;;;;;16.65;69.15;101411.22;5056549;28;20021;-83
2023/05/15 11:01:30;;;;;;;7.15;4.90;;;;;;;16.77;69.92;101416.06;5055593;28;20098;-83
2023/05/15 11:04:14;;;;;;;11.75;6.65;;;;;;;16.86;69.86;101414.91;5055250;28;20036;-83
2023/05/15 11:06:44;;;;;;;13.23;7.43;;;;;;;16.87;69.13;101423.63;5056385;28;20049;-83
2023/05/15 11:09:36;;;;;;;13.88;7.88;;;;;;;16.79;69.74;101418.63;5055169;28;20020;-83
2023/05/15 11:12:03;;;;;;;11.40;6.38;;;;;;;16.78;69.29;101422.16;5054735;28;20033;-84
2023/05/15 11:14:54;;;;;;;9.48;5.55;;;;;;;16.85;69.33;101414.97;5056149;28;20062;-83
2023/05/15 11:17:22;;;;;;;8.77;5.40;;;;;;;16.87;69.77;101421.84;5018781;28;20041;-83
2023/05/15 11:19:50;;;;;;;9.52;5.90;;;;;;;16.84;69.09;101421.94;5055400;28;20026;-81
2023/05/15 11:22:20;;;;;;;9.68;5.72;;;;;;;16.80;69.32;101410.72;5055162;28;20028;-82
2023/05/15 11:24:52;;;;;;;8.30;5.15;;;;;;;16.76;69.25;101418.72;5054962;28;20021;-81